Spencer, Tennessee
Current Conditions -  °F | °C
As of 4:55 PM on Saturday 25 Oct 2014 (Local Time) from KSRB Reporting Station
Broken Clouds Broken Clouds  
Wind Chill: 72°   Ceiling: 3800
Heat Index: 72°   Visibility: 10mi
Dew Point: 61°   Wind: 0mph
Humidity: 69%   Direction: NA
Pressure: 30.02"   Gusts: NA
Location:  35.75°N, 85.47°W
Report Text: KSRB 252155Z AUTO 00000KT 10SM BKN038 22/16 A3002 RMK
Loading
Personal Weather Stations






























Interactive Weather Map
Tropical Storm Tracking
New forecast layout! Learn more

10-Day Weather Forecast

Advertisements
Track Severe Weather on mobile